Time;durP1;ratioP1;P1;durP2;ratioP2;P2;SDS_P1;SDS_P2;PMS_P1;PMS_P2;Temp;Humidity;BMP_temperature;BMP_pressure;BME280_temperature;BME280_humidity;BME280_pressure;Samples;Min_cycle;Max_cycle;Signal;HPM_P1;HPM_P2
2021/08/17 00:01:09;;;;;;;14.38;8.38;;;;;;;;;;5054120;28;20020;-86
2021/08/17 00:03:34;;;;;;;14.30;8.43;;;;;;;;;;5066566;28;20033;-84
2021/08/17 00:06:01;;;;;;;17.90;9.85;;;;;;;;;;5071901;28;20029;-84
2021/08/17 00:08:28;;;;;;;11.98;8.75;;;;;;;;;;5072833;28;20062;-84
2021/08/17 00:10:53;;;;;;;14.20;9.73;;;;;;;;;;5071871;28;20036;-85
2021/08/17 00:13:20;;;;;;;13.50;8.60;;;;;;;;;;5071853;28;20110;-85
2021/08/17 00:15:46;;;;;;;13.15;8.77;;;;;;;;;;5071412;28;20079;-85
2021/08/17 00:18:11;;;;;;;18.02;9.15;;;;;;;;;;5068002;28;20087;-84
2021/08/17 00:20:37;;;;;;;16.15;9.30;;;;;;;;;;5045641;28;20032;-84
2021/08/17 00:23:05;;;;;;;16.13;9.93;;;;;;;;;;5069783;28;20043;-84
2021/08/17 00:25:31;;;;;;;16.98;8.95;;;;;;;;;;5071245;28;20510;-84
2021/08/17 00:27:57;;;;;;;15.02;8.82;;;;;;;;;;5071858;28;20021;-84
2021/08/17 00:30:22;;;;;;;16.38;9.13;;;;;;;;;;5074504;28;20024;-84
2021/08/17 00:32:48;;;;;;;12.52;8.73;;;;;;;;;;5074310;28;20032;-81
2021/08/17 00:35:13;;;;;;;12.48;8.38;;;;;;;;;;5074366;28;20116;-84
2021/08/17 00:37:39;;;;;;;12.35;7.88;;;;;;;;;;5071709;28;20116;-84
2021/08/17 00:40:04;;;;;;;16.80;9.30;;;;;;;;;;5059133;28;20131;-84
2021/08/17 00:42:31;;;;;;;11.93;7.78;;;;;;;;;;5056367;28;20111;-84
2021/08/17 00:45:01;;;;;;;13.05;8.88;;;;;;;;;;5071989;28;20408;-84
2021/08/17 00:47:27;;;;;;;13.48;8.32;;;;;;;;;;5075317;28;20066;-83
2021/08/17 00:49:52;;;;;;;16.00;8.30;;;;;;;;;;5076068;28;20029;-84
2021/08/17 00:52:18;;;;;;;15.88;7.95;;;;;;;;;;5075619;28;20028;-84
2021/08/17 00:54:44;;;;;;;11.82;7.32;;;;;;;;;;5074324;28;20059;-83
2021/08/17 00:57:12;;;;;;;14.50;9.13;;;;;;;;;;5075486;28;20021;-84
2021/08/17 00:59:38;;;;;;;10.93;8.20;;;;;;;;;;5057825;28;20044;-84
2021/08/17 01:02:05;;;;;;;12.45;8.75;;;;;;;;;;5075800;28;20113;-84
2021/08/17 01:04:32;;;;;;;14.18;8.65;;;;;;;;;;5056525;28;20035;-84
2021/08/17 01:06:57;;;;;;;13.55;8.38;;;;;;;;;;5060828;28;20033;-84
2021/08/17 01:09:23;;;;;;;11.10;7.60;;;;;;;;;;5055354;28;20477;-84
2021/08/17 01:11:49;;;;;;;10.07;8.02;;;;;;;;;;5037114;28;20025;-84
2021/08/17 01:14:15;;;;;;;13.25;8.38;;;;;;;;;;5054977;28;20053;-84
2021/08/17 01:16:41;;;;;;;13.07;8.93;;;;;;;;;;5074539;28;20033;-84
2021/08/17 01:19:07;;;;;;;11.65;8.43;;;;;;;;;;5074843;28;20040;-82
2021/08/17 01:21:33;;;;;;;11.98;8.32;;;;;;;;;;5062830;28;20059;-82
2021/08/17 01:23:59;;;;;;;10.35;7.97;;;;;;;;;;5055454;28;20120;-83
2021/08/17 01:26:24;;;;;;;11.80;8.80;;;;;;;;;;5074202;28;20060;-83
2021/08/17 01:28:50;;;;;;;13.18;8.15;;;;;;;;;;5074748;28;20052;-83
2021/08/17 01:31:15;;;;;;;12.90;8.32;;;;;;;;;;5074608;28;20086;-83
2021/08/17 01:33:41;;;;;;;12.43;8.00;;;;;;;;;;5073966;28;20474;-83
2021/08/17 01:36:06;;;;;;;13.95;7.60;;;;;;;;;;5059415;28;20054;-82
2021/08/17 01:38:32;;;;;;;11.82;7.93;;;;;;;;;;5074006;28;20077;-83
2021/08/17 01:40:58;;;;;;;12.02;7.70;;;;;;;;;;5074343;28;20060;-83
2021/08/17 01:43:23;;;;;;;12.68;8.10;;;;;;;;;;5074135;28;20158;-83
2021/08/17 01:45:56;;;;;;;15.27;7.57;;;;;;;;;;5074250;28;20028;-83
2021/08/17 01:48:24;;;;;;;12.38;7.35;;;;;;;;;;5073390;28;20044;-83
2021/08/17 01:50:49;;;;;;;11.82;8.13;;;;;;;;;;5074511;28;20039;-82
2021/08/17 01:53:15;;;;;;;13.73;8.55;;;;;;;;;;5074415;28;20025;-82
2021/08/17 01:55:40;;;;;;;14.93;8.23;;;;;;;;;;5073385;28;20036;-85
2021/08/17 01:58:06;;;;;;;12.25;7.93;;;;;;;;;;5056194;28;20017;-85
2021/08/17 02:00:31;;;;;;;11.82;7.50;;;;;;;;;;5073819;28;20036;-85
2021/08/17 02:02:57;;;;;;;11.45;7.90;;;;;;;;;;5074139;28;20493;-83
2021/08/17 02:05:24;;;;;;;13.60;8.40;;;;;;;;;;5073576;28;20039;-83
2021/08/17 02:07:52;;;;;;;9.50;7.63;;;;;;;;;;5073717;28;20111;-83
2021/08/17 02:10:17;;;;;;;11.98;8.00;;;;;;;;;;5056284;28;20112;-85
2021/08/17 02:12:43;;;;;;;11.05;7.68;;;;;;;;;;5073592;28;20128;-83
2021/08/17 02:15:08;;;;;;;11.15;7.05;;;;;;;;;;5073007;28;20574;-84
2021/08/17 02:17:34;;;;;;;15.27;8.15;;;;;;;;;;5073994;28;20529;-83
2021/08/17 02:20:00;;;;;;;13.15;8.23;;;;;;;;;;5074066;28;20128;-84
2021/08/17 02:22:25;;;;;;;9.18;8.10;;;;;;;;;;5073844;28;20024;-85
2021/08/17 02:24:51;;;;;;;11.35;7.90;;;;;;;;;;5073882;28;20036;-85
2021/08/17 02:27:16;;;;;;;10.30;7.97;;;;;;;;;;5073503;28;20475;-84
2021/08/17 02:29:42;;;;;;;16.08;6.93;;;;;;;;;;5073204;28;20489;-83
2021/08/17 02:32:07;;;;;;;15.52;7.72;;;;;;;;;;5073947;28;20059;-83
2021/08/17 02:34:33;;;;;;;15.82;7.80;;;;;;;;;;5073950;28;20078;-83
2021/08/17 02:36:58;;;;;;;14.85;7.53;;;;;;;;;;5072500;28;20103;-84
2021/08/17 02:39:24;;;;;;;11.55;6.88;;;;;;;;;;5073443;28;20414;-84
2021/08/17 02:41:49;;;;;;;12.52;8.35;;;;;;;;;;5057618;28;20476;-84
2021/08/17 02:44:15;;;;;;;19.60;7.53;;;;;;;;;;5073054;28;20025;-83
2021/08/17 02:46:41;;;;;;;11.25;7.65;;;;;;;;;;5072851;28;20031;-83
2021/08/17 02:49:06;;;;;;;8.75;7.43;;;;;;;;;;5072948;28;20032;-83
2021/08/17 02:51:32;;;;;;;11.75;7.78;;;;;;;;;;5055351;28;20044;-83
2021/08/17 02:53:57;;;;;;;10.82;7.20;;;;;;;;;;5073072;28;20024;-83
2021/08/17 02:56:23;;;;;;;10.98;6.93;;;;;;;;;;5048516;28;20028;-83
2021/08/17 02:58:48;;;;;;;11.70;7.55;;;;;;;;;;5073380;28;20055;-83
2021/08/17 03:01:14;;;;;;;14.35;7.00;;;;;;;;;;5068119;28;20383;-84
2021/08/17 03:03:39;;;;;;;13.15;7.15;;;;;;;;;;5054357;28;20490;-84
2021/08/17 03:06:05;;;;;;;9.82;6.28;;;;;;;;;;5068304;28;20363;-84
2021/08/17 03:08:30;;;;;;;16.05;6.35;;;;;;;;;;5072252;28;20033;-84
2021/08/17 03:10:56;;;;;;;9.73;6.50;;;;;;;;;;5062272;28;20033;-83
2021/08/17 03:13:21;;;;;;;11.75;5.97;;;;;;;;;;5072986;28;20035;-82
2021/08/17 03:15:47;;;;;;;10.32;6.28;;;;;;;;;;5069171;28;20131;-81
2021/08/17 03:18:13;;;;;;;14.95;5.47;;;;;;;;;;5073213;28;20068;-84
2021/08/17 03:20:38;;;;;;;11.60;6.28;;;;;;;;;;5072325;28;20032;-84
2021/08/17 03:23:04;;;;;;;7.47;5.75;;;;;;;;;;5054302;28;20024;-84
2021/08/17 03:25:30;;;;;;;13.00;6.15;;;;;;;;;;5072585;28;20028;-84
2021/08/17 03:27:56;;;;;;;12.80;6.82;;;;;;;;;;5072038;28;20026;-84
2021/08/17 03:30:23;;;;;;;13.32;6.97;;;;;;;;;;5071258;28;20032;-84
2021/08/17 03:32:49;;;;;;;10.15;6.65;;;;;;;;;;5071309;28;20055;-84
2021/08/17 03:35:15;;;;;;;14.07;7.13;;;;;;;;;;5072188;28;20067;-83
2021/08/17 03:37:41;;;;;;;14.00;7.05;;;;;;;;;;5061606;28;20056;-84
2021/08/17 03:40:10;;;;;;;22.58;7.78;;;;;;;;;;5071479;28;20059;-84
2021/08/17 03:42:37;;;;;;;14.05;6.97;;;;;;;;;;5071507;28;20550;-85
2021/08/17 03:45:03;;;;;;;13.68;7.15;;;;;;;;;;5072225;28;20115;-85
2021/08/17 03:47:28;;;;;;;14.05;6.35;;;;;;;;;;5072284;28;20066;-85
2021/08/17 03:49:54;;;;;;;10.70;6.40;;;;;;;;;;5072292;28;20035;-85
2021/08/17 03:52:19;;;;;;;13.57;6.82;;;;;;;;;;5071196;28;20038;-84
2021/08/17 03:54:45;;;;;;;20.20;7.63;;;;;;;;;;5060761;28;20021;-83
2021/08/17 03:57:11;;;;;;;17.33;7.90;;;;;;;;;;5072143;28;20025;-84
2021/08/17 03:59:36;;;;;;;21.45;8.20;;;;;;;;;;5069772;28;20032;-85
2021/08/17 04:02:02;;;;;;;23.95;7.78;;;;;;;;;;5072892;28;20078;-84
2021/08/17 04:04:27;;;;;;;23.50;7.80;;;;;;;;;;5072395;28;20537;-85
2021/08/17 04:06:53;;;;;;;27.83;8.10;;;;;;;;;;5071931;28;20024;-84
2021/08/17 04:09:18;;;;;;;17.25;8.05;;;;;;;;;;5072274;28;20030;-83
2021/08/17 04:11:44;;;;;;;16.02;7.90;;;;;;;;;;5071156;28;20517;-84
2021/08/17 04:14:09;;;;;;;15.75;7.60;;;;;;;;;;5053868;28;20063;-84
2021/08/17 04:16:35;;;;;;;14.80;7.30;;;;;;;;;;5072241;28;20118;-83
2021/08/17 04:19:00;;;;;;;17.85;7.80;;;;;;;;;;5053664;28;20037;-84
2021/08/17 04:21:26;;;;;;;21.80;8.38;;;;;;;;;;5068445;28;20087;-83
2021/08/17 04:23:51;;;;;;;21.73;8.60;;;;;;;;;;5075636;28;20033;-83
2021/08/17 04:26:17;;;;;;;24.25;9.38;;;;;;;;;;5075728;28;20021;-83
2021/08/17 04:28:43;;;;;;;17.65;8.25;;;;;;;;;;5075845;28;20025;-83
2021/08/17 04:31:08;;;;;;;23.30;9.20;;;;;;;;;;5075885;28;20441;-84
2021/08/17 04:33:34;;;;;;;22.85;9.55;;;;;;;;;;5075041;28;20107;-82
2021/08/17 04:35:59;;;;;;;18.98;9.15;;;;;;;;;;5075005;28;20491;-83
2021/08/17 04:38:25;;;;;;;18.88;9.73;;;;;;;;;;5075617;28;20023;-83
2021/08/17 04:40:50;;;;;;;17.38;8.23;;;;;;;;;;5075516;28;20032;-84
2021/08/17 04:43:16;;;;;;;26.25;9.57;;;;;;;;;;5075512;28;20101;-85
2021/08/17 04:45:41;;;;;;;16.73;8.20;;;;;;;;;;5074783;28;20029;-85
2021/08/17 04:48:07;;;;;;;18.95;9.65;;;;;;;;;;5074121;28;20102;-83
2021/08/17 04:50:32;;;;;;;24.05;10.00;;;;;;;;;;5055184;28;20391;-83
2021/08/17 04:52:58;;;;;;;28.77;10.23;;;;;;;;;;5055308;28;20029;-83
2021/08/17 04:55:23;;;;;;;19.50;10.18;;;;;;;;;;5062913;28;20035;-83
2021/08/17 04:57:56;;;;;;;24.33;10.82;;;;;;;;;;5056674;28;20024;-84
2021/08/17 05:00:22;;;;;;;23.13;10.38;;;;;;;;;;5053140;28;20041;-84
2021/08/17 05:02:48;;;;;;;26.55;10.52;;;;;;;;;;5057054;28;20027;-84
2021/08/17 05:05:14;;;;;;;21.17;9.38;;;;;;;;;;5074379;28;20115;-83
2021/08/17 05:07:40;;;;;;;25.88;9.70;;;;;;;;;;5055242;28;20052;-83
2021/08/17 05:10:06;;;;;;;24.30;9.80;;;;;;;;;;5071610;28;20029;-83
2021/08/17 05:12:32;;;;;;;27.67;10.57;;;;;;;;;;5074430;28;20055;-82
2021/08/17 05:14:57;;;;;;;19.83;9.45;;;;;;;;;;5057201;28;20446;-82
2021/08/17 05:17:23;;;;;;;23.35;10.25;;;;;;;;;;5072794;28;20386;-83
2021/08/17 05:19:48;;;;;;;16.83;8.25;;;;;;;;;;5074777;28;20490;-83
2021/08/17 05:22:14;;;;;;;23.63;9.63;;;;;;;;;;5074252;28;20024;-83
2021/08/17 05:24:39;;;;;;;16.88;8.35;;;;;;;;;;5074472;28;20025;-83
2021/08/17 05:27:05;;;;;;;23.30;9.63;;;;;;;;;;5069742;28;20442;-83
2021/08/17 05:29:30;;;;;;;18.23;8.23;;;;;;;;;;5072791;28;20052;-82
2021/08/17 05:31:56;;;;;;;29.88;9.90;;;;;;;;;;5072726;28;20433;-83
2021/08/17 05:34:21;;;;;;;20.25;7.60;;;;;;;;;;5075190;28;20483;-84
2021/08/17 05:36:47;;;;;;;21.63;8.85;;;;;;;;;;5074069;28;20021;-83
2021/08/17 05:39:12;;;;;;;16.40;7.85;;;;;;;;;;5074019;28;20043;-83
2021/08/17 05:41:38;;;;;;;18.95;8.18;;;;;;;;;;5073522;28;20410;-82
2021/08/17 05:44:03;;;;;;;23.98;8.10;;;;;;;;;;5074371;28;20029;-83
2021/08/17 05:46:29;;;;;;;29.45;8.70;;;;;;;;;;5074271;28;20114;-83
2021/08/17 05:48:54;;;;;;;20.88;8.27;;;;;;;;;;5074142;28;20438;-82
2021/08/17 05:51:20;;;;;;;21.35;7.63;;;;;;;;;;5073969;28;20101;-83
2021/08/17 05:53:45;;;;;;;18.40;7.80;;;;;;;;;;5075234;28;20191;-82
2021/08/17 05:56:11;;;;;;;26.90;8.70;;;;;;;;;;5069304;28;20068;-83
2021/08/17 05:58:36;;;;;;;19.92;8.02;;;;;;;;;;5060181;28;20102;-82
2021/08/17 06:01:02;;;;;;;21.58;8.95;;;;;;;;;;5055484;28;20039;-82
2021/08/17 06:03:27;;;;;;;24.45;9.85;;;;;;;;;;5075965;28;20037;-82
2021/08/17 06:05:57;;;;;;;26.02;9.43;;;;;;;;;;5075431;28;20032;-82
2021/08/17 06:08:23;;;;;;;25.15;10.02;;;;;;;;;;5070606;28;20025;-82
2021/08/17 06:10:48;;;;;;;19.80;9.95;;;;;;;;;;5061410;28;20133;-84
2021/08/17 06:13:14;;;;;;;18.08;9.48;;;;;;;;;;5056607;28;20105;-83
2021/08/17 06:15:40;;;;;;;15.57;9.02;;;;;;;;;;5073632;28;20094;-83
2021/08/17 06:18:05;;;;;;;17.63;8.18;;;;;;;;;;5073481;28;20495;-81
2021/08/17 06:20:31;;;;;;;15.77;8.00;;;;;;;;;;5074927;28;20425;-84
2021/08/17 06:22:57;;;;;;;13.95;8.27;;;;;;;;;;5071705;28;20029;-82
2021/08/17 06:25:23;;;;;;;27.48;9.90;;;;;;;;;;5072980;28;20032;-83
2021/08/17 06:27:48;;;;;;;27.20;9.10;;;;;;;;;;5055187;28;20027;-83
2021/08/17 06:30:14;;;;;;;17.67;8.32;;;;;;;;;;5072926;28;20020;-86
2021/08/17 06:32:39;;;;;;;17.77;8.07;;;;;;;;;;5074121;28;20021;-83
2021/08/17 06:35:05;;;;;;;19.27;8.85;;;;;;;;;;5038028;28;20048;-82
2021/08/17 06:37:30;;;;;;;18.15;8.65;;;;;;;;;;5068008;28;20056;-82
2021/08/17 06:39:56;;;;;;;18.40;8.52;;;;;;;;;;5073201;28;20036;-83
2021/08/17 06:42:23;;;;;;;24.65;9.50;;;;;;;;;;5072282;28;20020;-79
2021/08/17 06:44:49;;;;;;;18.70;8.57;;;;;;;;;;5060776;28;20029;-81
2021/08/17 06:47:14;;;;;;;14.35;8.50;;;;;;;;;;5072425;28;20031;-81
2021/08/17 06:49:40;;;;;;;15.43;8.82;;;;;;;;;;5072652;28;20540;-82
2021/08/17 06:52:06;;;;;;;17.10;8.63;;;;;;;;;;5054920;28;20063;-83
2021/08/17 06:54:31;;;;;;;13.60;8.57;;;;;;;;;;5073110;28;20035;-77
2021/08/17 06:56:58;;;;;;;21.10;8.32;;;;;;;;;;5071520;28;20028;-81
2021/08/17 06:59:24;;;;;;;13.23;7.85;;;;;;;;;;5072148;28;20040;-81
2021/08/17 07:01:50;;;;;;;13.80;7.95;;;;;;;;;;5067553;28;20032;-81
2021/08/17 07:04:15;;;;;;;15.13;7.25;;;;;;;;;;5072340;28;20462;-80
2021/08/17 07:06:41;;;;;;;9.80;7.32;;;;;;;;;;5053411;28;20040;-80
2021/08/17 07:09:07;;;;;;;23.05;8.13;;;;;;;;;;5071977;28;20086;-82
2021/08/17 07:11:32;;;;;;;21.02;7.85;;;;;;;;;;5054254;28;20097;-82
2021/08/17 07:13:58;;;;;;;13.85;7.40;;;;;;;;;;5072147;28;20087;-81
2021/08/17 07:16:23;;;;;;;12.55;7.30;;;;;;;;;;5071492;28;20040;-81
2021/08/17 07:18:49;;;;;;;12.13;7.10;;;;;;;;;;5071653;28;20127;-78
2021/08/17 07:21:14;;;;;;;20.33;8.55;;;;;;;;;;5072046;28;20016;-80
2021/08/17 07:23:40;;;;;;;12.35;7.63;;;;;;;;;;5071060;28;20051;-80
2021/08/17 07:26:05;;;;;;;18.30;7.45;;;;;;;;;;5071535;28;20107;-81
2021/08/17 07:28:31;;;;;;;13.77;7.85;;;;;;;;;;5071174;28;20038;-81
2021/08/17 07:30:56;;;;;;;16.08;7.45;;;;;;;;;;5071946;28;20025;-79
2021/08/17 07:33:22;;;;;;;14.50;7.72;;;;;;;;;;5071322;28;20032;-80
2021/08/17 07:35:48;;;;;;;17.42;7.65;;;;;;;;;;5071556;28;20202;-79
2021/08/17 07:38:13;;;;;;;14.63;6.90;;;;;;;;;;5071891;28;20483;-80
2021/08/17 07:40:39;;;;;;;15.20;8.05;;;;;;;;;;5071214;28;20040;-79
2021/08/17 07:43:06;;;;;;;13.88;7.93;;;;;;;;;;5071037;28;20060;-81
2021/08/17 07:45:32;;;;;;;12.55;8.05;;;;;;;;;;5072236;28;20040;-81
2021/08/17 07:47:58;;;;;;;14.20;8.05;;;;;;;;;;5070975;28;20476;-82
2021/08/17 07:50:23;;;;;;;15.98;8.40;;;;;;;;;;5069960;28;20035;-82
2021/08/17 07:52:50;;;;;;;11.20;7.40;;;;;;;;;;5071481;28;20107;-83
2021/08/17 07:55:16;;;;;;;15.95;8.98;;;;;;;;;;5071389;28;20028;-81
2021/08/17 07:57:42;;;;;;;15.77;8.13;;;;;;;;;;5071803;28;20119;-81
2021/08/17 08:00:09;;;;;;;12.88;8.68;;;;;;;;;;5071500;28;20123;-80
2021/08/17 08:02:34;;;;;;;21.45;9.05;;;;;;;;;;5071504;28;20029;-81
2021/08/17 08:05:00;;;;;;;17.65;9.02;;;;;;;;;;5071920;28;20032;-83
2021/08/17 08:07:25;;;;;;;18.88;9.70;;;;;;;;;;5071653;28;20025;-83
2021/08/17 08:09:51;;;;;;;15.52;7.93;;;;;;;;;;5071694;28;20036;-80
2021/08/17 08:12:16;;;;;;;14.02;8.35;;;;;;;;;;5071205;28;20032;-81
2021/08/17 08:14:43;;;;;;;16.75;8.15;;;;;;;;;;5066467;28;20060;-81
2021/08/17 08:17:08;;;;;;;16.58;7.88;;;;;;;;;;5052893;28;20066;-81
2021/08/17 08:19:34;;;;;;;12.90;7.10;;;;;;;;;;5071329;28;20052;-81
2021/08/17 08:22:00;;;;;;;12.02;8.13;;;;;;;;;;5071209;28;20037;-80
2021/08/17 08:24:25;;;;;;;16.02;8.55;;;;;;;;;;5061536;28;20040;-81
2021/08/17 08:26:51;;;;;;;15.50;8.35;;;;;;;;;;5051459;28;20036;-81
2021/08/17 08:29:16;;;;;;;17.58;7.78;;;;;;;;;;5051673;28;20510;-83
2021/08/17 08:31:42;;;;;;;14.82;8.75;;;;;;;;;;5051263;28;20044;-81
2021/08/17 08:34:07;;;;;;;13.63;9.55;;;;;;;;;;5065352;28;20028;-85
2021/08/17 08:36:33;;;;;;;13.88;9.15;;;;;;;;;;5078325;28;20036;-82
2021/08/17 08:38:59;;;;;;;14.75;9.30;;;;;;;;;;5098367;28;20473;-81
2021/08/17 08:41:24;;;;;;;15.70;8.80;;;;;;;;;;5100675;28;20066;-82
2021/08/17 08:43:50;;;;;;;18.85;8.68;;;;;;;;;;5072817;28;20032;-80
2021/08/17 08:46:20;;;;;;;14.20;8.55;;;;;;;;;;5071753;28;20025;-82
2021/08/17 08:48:48;;;;;;;14.88;8.10;;;;;;;;;;5071921;28;20115;-82
2021/08/17 08:51:14;;;;;;;14.68;8.77;;;;;;;;;;5071339;28;20032;-83
2021/08/17 08:53:40;;;;;;;13.15;8.32;;;;;;;;;;5070981;28;20028;-83
2021/08/17 08:56:06;;;;;;;13.80;7.50;;;;;;;;;;5071348;28;20222;-82
2021/08/17 08:58:32;;;;;;;13.52;7.90;;;;;;;;;;5071168;28;20055;-81
2021/08/17 09:00:58;;;;;;;13.73;8.13;;;;;;;;;;5071400;28;20087;-82
2021/08/17 09:03:40;;;;;;;15.65;9.15;;;;;;;;;;5071175;28;20123;-84
2021/08/17 09:06:14;;;;;;;16.13;8.13;;;;;;;;;;5056616;28;20517;-84
2021/08/17 09:08:40;;;;;;;18.20;9.57;;;;;;;;;;5074094;28;20525;-84
2021/08/17 09:11:15;;;;;;;17.05;9.20;;;;;;;;;;5060265;28;20168;-85
2021/08/17 09:13:41;;;;;;;20.73;9.70;;;;;;;;;;5036663;28;20115;-84
2021/08/17 09:16:24;;;;;;;20.60;9.27;;;;;;;;;;5063233;28;20462;-84
2021/08/17 09:18:52;;;;;;;22.98;9.75;;;;;;;;;;5054735;28;20086;-84
2021/08/17 09:21:18;;;;;;;17.63;9.25;;;;;;;;;;5054756;28;20395;-85
2021/08/17 09:23:43;;;;;;;14.80;9.32;;;;;;;;;;5069122;28;20031;-85
2021/08/17 09:26:22;;;;;;;16.08;8.52;;;;;;;;;;5074262;28;20024;-85
2021/08/17 09:28:57;;;;;;;15.13;9.85;;;;;;;;;;5074702;28;20035;-85
2021/08/17 09:31:34;;;;;;;16.65;9.60;;;;;;;;;;5074759;28;20032;-85
2021/08/17 09:33:59;;;;;;;16.13;9.05;;;;;;;;;;5074947;28;20044;-85
2021/08/17 09:36:34;;;;;;;13.88;9.15;;;;;;;;;;5073492;28;20501;-86
2021/08/17 09:38:59;;;;;;;15.45;8.65;;;;;;;;;;5074413;28;20044;-86
2021/08/17 09:41:25;;;;;;;14.48;8.88;;;;;;;;;;5074264;28;20025;-83
2021/08/17 09:43:58;;;;;;;15.20;9.05;;;;;;;;;;5074412;28;20483;-85
2021/08/17 09:46:25;;;;;;;13.48;8.43;;;;;;;;;;5073369;28;20033;-85
2021/08/17 09:48:51;;;;;;;14.55;7.93;;;;;;;;;;5073118;28;20033;-83
2021/08/17 09:51:31;;;;;;;12.88;8.95;;;;;;;;;;5073322;28;20473;-84
2021/08/17 09:54:12;;;;;;;12.77;8.95;;;;;;;;;;5072926;28;20030;-85
2021/08/17 09:56:38;;;;;;;17.85;8.73;;;;;;;;;;5070072;28;20036;-85
2021/08/17 09:59:05;;;;;;;55.42;11.93;;;;;;;;;;5073161;28;20388;-84
2021/08/17 10:01:30;;;;;;;26.10;9.63;;;;;;;;;;5053746;28;20024;-85
2021/08/17 10:03:57;;;;;;;13.20;8.93;;;;;;;;;;5072385;28;20491;-85
2021/08/17 10:06:23;;;;;;;14.25;9.40;;;;;;;;;;5073861;28;20115;-85
2021/08/17 10:08:48;;;;;;;13.65;8.50;;;;;;;;;;5072228;28;20109;-84
2021/08/17 10:11:16;;;;;;;12.43;9.38;;;;;;;;;;5073468;28;20031;-85
2021/08/17 10:13:42;;;;;;;13.98;9.38;;;;;;;;;;5073601;28;20041;-84
2021/08/17 10:16:09;;;;;;;17.88;10.20;;;;;;;;;;5073398;28;20052;-84
2021/08/17 10:18:36;;;;;;;15.05;9.75;;;;;;;;;;5071988;28;20032;-86
2021/08/17 10:21:05;;;;;;;15.85;9.75;;;;;;;;;;5073390;28;20075;-84
2021/08/17 10:23:32;;;;;;;13.45;9.20;;;;;;;;;;5073324;28;20032;-83
2021/08/17 10:25:58;;;;;;;14.55;9.25;;;;;;;;;;5073371;28;20572;-86
2021/08/17 10:28:27;;;;;;;20.45;9.05;;;;;;;;;;5068574;28;20119;-83
2021/08/17 10:30:53;;;;;;;16.83;8.60;;;;;;;;;;5075428;28;20123;-79
2021/08/17 10:33:40;;;;;;;15.52;9.10;;;;;;;;;;5079384;28;20214;-85
2021/08/17 10:36:07;;;;;;;16.08;10.02;;;;;;;;;;5073989;28;20034;-84
2021/08/17 10:38:41;;;;;;;22.05;9.95;;;;;;;;;;5084564;28;20561;-85
2021/08/17 10:41:08;;;;;;;15.90;8.93;;;;;;;;;;5073847;28;20120;-84
2021/08/17 10:43:33;;;;;;;17.58;9.20;;;;;;;;;;5060912;28;20028;-82
2021/08/17 10:46:00;;;;;;;20.17;9.35;;;;;;;;;;5072481;28;20082;-83
2021/08/17 10:48:44;;;;;;;19.73;9.50;;;;;;;;;;5072917;28;20059;-83
2021/08/17 10:51:30;;;;;;;15.27;8.63;;;;;;;;;;5067771;28;20032;-85
2021/08/17 10:54:04;;;;;;;19.15;9.48;;;;;;;;;;5038518;28;20036;-83
2021/08/17 10:56:31;;;;;;;13.07;8.52;;;;;;;;;;5060218;28;20036;-85
2021/08/17 10:58:57;;;;;;;19.75;8.98;;;;;;;;;;5072776;28;20035;-82
2021/08/17 11:01:34;;;;;;;16.65;8.45;;;;;;;;;;5071624;28;20028;-85
2021/08/17 11:04:06;;;;;;;18.08;9.13;;;;;;;;;;5072477;28;20024;-84
2021/08/17 11:06:50;;;;;;;14.20;7.57;;;;;;;;;;5054340;28;20375;-85
2021/08/17 11:09:35;;;;;;;16.13;8.73;;;;;;;;;;5038319;28;20024;-84
2021/08/17 11:12:08;;;;;;;22.80;9.25;;;;;;;;;;5052055;28;20028;-83
2021/08/17 11:14:34;;;;;;;16.48;8.35;;;;;;;;;;5071765;28;20052;-82
2021/08/17 11:17:00;;;;;;;14.48;8.38;;;;;;;;;;5072537;28;20085;-84
2021/08/17 11:19:30;;;;;;;15.63;8.05;;;;;;;;;;5037264;28;20031;-83
2021/08/17 11:21:57;;;;;;;12.18;7.90;;;;;;;;;;5072044;28;20024;-83
2021/08/17 11:24:30;;;;;;;13.43;8.50;;;;;;;;;;5076050;28;20491;-83
2021/08/17 11:27:06;;;;;;;16.23;8.55;;;;;;;;;;5071860;28;20040;-84
2021/08/17 11:29:34;;;;;;;18.58;7.88;;;;;;;;;;5071833;28;20036;-84
2021/08/17 11:32:02;;;;;;;20.67;9.27;;;;;;;;;;5055264;28;20064;-83
2021/08/17 11:34:29;;;;;;;13.63;7.43;;;;;;;;;;5057515;28;20062;-87
2021/08/17 11:36:56;;;;;;;12.60;8.02;;;;;;;;;;5057284;28;20375;-85
2021/08/17 11:39:25;;;;;;;14.57;7.18;;;;;;;;;;5071746;28;20048;-83
2021/08/17 11:41:51;;;;;;;13.18;7.43;;;;;;;;;;5071432;28;20036;-86
2021/08/17 11:44:17;;;;;;;15.32;7.75;;;;;;;;;;5071858;28;20043;-87
2021/08/17 11:46:42;;;;;;;31.50;8.60;;;;;;;;;;5071068;28;20040;-83
2021/08/17 11:49:20;;;;;;;16.02;8.38;;;;;;;;;;5069528;28;20039;-82
2021/08/17 11:51:46;;;;;;;13.57;7.65;;;;;;;;;;5060835;28;21577;-86
2021/08/17 11:54:15;;;;;;;13.75;8.57;;;;;;;;;;5064027;28;20028;-85
2021/08/17 11:56:41;;;;;;;13.93;8.02;;;;;;;;;;5063780;28;20209;-86
2021/08/17 11:59:06;;;;;;;15.73;8.30;;;;;;;;;;5073139;28;20123;-86
2021/08/17 12:01:32;;;;;;;13.75;8.23;;;;;;;;;;5072213;28;20029;-80
2021/08/17 12:04:07;;;;;;;16.58;8.75;;;;;;;;;;5072011;28;20035;-84
2021/08/17 12:06:33;;;;;;;13.95;8.20;;;;;;;;;;5071586;28;20119;-83
2021/08/17 12:09:18;;;;;;;11.98;8.30;;;;;;;;;;5071882;28;20032;-84
2021/08/17 12:11:56;;;;;;;14.90;8.70;;;;;;;;;;5053625;28;20164;-84
2021/08/17 12:14:23;;;;;;;15.40;9.05;;;;;;;;;;5074827;28;20043;-79
2021/08/17 12:16:53;;;;;;;18.95;9.70;;;;;;;;;;5075810;28;20077;-83
2021/08/17 12:19:18;;;;;;;16.02;10.13;;;;;;;;;;5053432;28;20409;-81
2021/08/17 12:21:45;;;;;;;18.23;10.00;;;;;;;;;;5071796;28;20119;-81
2021/08/17 12:24:20;;;;;;;17.35;9.65;;;;;;;;;;5089208;28;20036;-82
2021/08/17 12:26:53;;;;;;;15.33;9.33;;;;;;;;;;5053221;28;20029;-84
2021/08/17 12:29:23;;;;;;;15.52;9.68;;;;;;;;;;5072068;28;20502;-84
2021/08/17 12:31:48;;;;;;;21.45;10.07;;;;;;;;;;5071801;28;20054;-86
2021/08/17 12:34:14;;;;;;;17.42;9.02;;;;;;;;;;5070862;28;20028;-82
2021/08/17 12:36:57;;;;;;;16.38;9.35;;;;;;;;;;5071239;28;20024;-86
2021/08/17 12:39:24;;;;;;;20.77;9.88;;;;;;;;;;5071316;28;20049;-86
2021/08/17 12:41:51;;;;;;;18.10;9.70;;;;;;;;;;5074107;28;20078;-84
2021/08/17 12:44:29;;;;;;;19.38;10.45;;;;;;;;;;5076007;28;20031;-85
2021/08/17 12:46:57;;;;;;;14.38;8.85;;;;;;;;;;5075391;28;20368;-85
2021/08/17 12:49:23;;;;;;;19.08;9.35;;;;;;;;;;5075900;28;20081;-86
2021/08/17 12:51:49;;;;;;;16.02;9.40;;;;;;;;;;5066844;28;20407;-85
2021/08/17 12:54:14;;;;;;;16.08;8.27;;;;;;;;;;5057170;28;20074;-86
2021/08/17 12:56:40;;;;;;;23.65;9.52;;;;;;;;;;5058355;28;20387;-85
2021/08/17 12:59:05;;;;;;;18.17;8.88;;;;;;;;;;5054756;28;20040;-85
2021/08/17 13:01:31;;;;;;;13.18;8.20;;;;;;;;;;5059115;28;20040;-85
2021/08/17 13:03:57;;;;;;;14.82;8.95;;;;;;;;;;5075587;28;20024;-85
2021/08/17 13:06:23;;;;;;;16.70;8.85;;;;;;;;;;5074938;28;20398;-86
2021/08/17 13:08:48;;;;;;;20.38;8.20;;;;;;;;;;5075137;28;20016;-85
2021/08/17 13:11:14;;;;;;;16.95;8.82;;;;;;;;;;5075007;28;20028;-85
2021/08/17 13:13:39;;;;;;;16.70;8.85;;;;;;;;;;5069721;28;20020;-84
2021/08/17 13:16:05;;;;;;;15.82;8.20;;;;;;;;;;5074376;28;20063;-84
2021/08/17 13:18:30;;;;;;;15.85;8.07;;;;;;;;;;5074679;28;20026;-84
2021/08/17 13:20:56;;;;;;;12.52;7.30;;;;;;;;;;5074245;28;20041;-85
2021/08/17 13:23:22;;;;;;;18.65;9.23;;;;;;;;;;5057202;28;20040;-85
2021/08/17 13:25:47;;;;;;;17.90;8.27;;;;;;;;;;5056245;28;20024;-84
2021/08/17 13:28:13;;;;;;;20.65;8.73;;;;;;;;;;5074887;28;20025;-83
2021/08/17 13:30:38;;;;;;;14.85;8.35;;;;;;;;;;5073953;28;20031;-85
2021/08/17 13:33:04;;;;;;;15.23;8.35;;;;;;;;;;5072989;28;20043;-84
2021/08/17 13:35:34;;;;;;;20.33;8.73;;;;;;;;;;5070126;28;20039;-86
2021/08/17 13:38:00;;;;;;;14.95;9.05;;;;;;;;;;5074967;28;20020;-87
2021/08/17 13:40:25;;;;;;;20.05;8.65;;;;;;;;;;5074013;28;20089;-85
2021/08/17 13:42:51;;;;;;;15.80;8.05;;;;;;;;;;5074774;28;20032;-84
2021/08/17 13:45:16;;;;;;;16.15;8.57;;;;;;;;;;5074772;28;20036;-83
2021/08/17 13:47:42;;;;;;;17.38;9.00;;;;;;;;;;5074322;28;20028;-85
2021/08/17 13:50:08;;;;;;;11.43;8.02;;;;;;;;;;5074414;28;20455;-84
2021/08/17 13:52:34;;;;;;;17.15;8.70;;;;;;;;;;5079158;28;20479;-84
2021/08/17 13:54:59;;;;;;;15.18;7.60;;;;;;;;;;5080751;28;20033;-84
2021/08/17 13:57:25;;;;;;;15.43;9.05;;;;;;;;;;5092648;28;20028;-85
2021/08/17 13:59:50;;;;;;;16.23;8.45;;;;;;;;;;5068231;28;20055;-83
2021/08/17 14:02:16;;;;;;;15.35;8.90;;;;;;;;;;5085107;28;20056;-85
2021/08/17 14:04:41;;;;;;;19.27;9.02;;;;;;;;;;5077908;28;20080;-85
2021/08/17 14:07:07;;;;;;;15.63;8.43;;;;;;;;;;5075832;28;20052;-84
2021/08/17 14:09:38;;;;;;;16.92;9.20;;;;;;;;;;5066981;28;20024;-87
2021/08/17 14:12:04;;;;;;;18.45;9.55;;;;;;;;;;5034230;28;20033;-87
2021/08/17 14:14:30;;;;;;;17.10;9.15;;;;;;;;;;5091578;28;20044;-85
2021/08/17 14:16:56;;;;;;;17.40;9.23;;;;;;;;;;5081678;28;20020;-86
2021/08/17 14:19:22;;;;;;;21.65;9.05;;;;;;;;;;5080007;28;20089;-83
2021/08/17 14:21:49;;;;;;;18.48;9.07;;;;;;;;;;5081044;28;20020;-84
2021/08/17 14:24:15;;;;;;;14.27;9.02;;;;;;;;;;5084063;28;20482;-84
2021/08/17 14:26:41;;;;;;;23.55;10.30;;;;;;;;;;5101111;28;20035;-86